Sunday, April 22, 2018, 9:32 PM EDT
Back to Local

KPVC, Provincetown, Provincetown Municipal Airport

Location: Provincetown, MA, United States Lat: 42.067
Local Time: 9:32 PM EDT ( 1:32 GMT) Lon: -70.217
Time Zone: US/Eastern Elev: 6 ft

Show me the last for .
Show Coded

Time T Td Feel RH Dir Speed Gust Alt SLP Vis Weather Sky Remarks
2018-04-22 20:56 46 32 41 57 180° 9 - 30.37 30.37 10 CLR None
2018-04-22 19:56 46 32 42 57 160° 7 - 30.35 30.34 10 CLR 6-hr Min Temp (8pm): 46.0°F
6-hr Max Temp (8pm): 55.0°F
2018-04-22 18:56 50 31 47 47 170° 8 - 30.34 30.33 10 CLR None
2018-04-22 17:56 52 29 - 40 170° 10 - 30.33 30.33 10 CLR None
2018-04-22 16:56 54 17 - 23 - Calm - 30.33 30.33 10 CLR None
2018-04-22 15:56 55 23 - 28 70° 9 - 30.32 30.32 10 CLR None
2018-04-22 14:56 53 29 - 39 50° 10 - 30.33 30.33 10 CLR None
2018-04-22 13:56 53 32 - 44 30° 7 - 30.35 30.35 10 CLR 6-hr Min Temp (2pm): 45.0°F
6-hr Max Temp (2pm): 55.0°F
2018-04-22 12:56 54 24 - 31 290° 9 - 30.35 30.35 10 CLR None
2018-04-22 11:56 51 32 - 47 300° 9 - 30.35 30.35 10 CLR None
2018-04-22 10:56 49 34 45 56 310° 10 - 30.35 30.35 10 CLR None
2018-04-22 09:56 47 33 42 58 300° 10 - 30.35 30.35 10 CLR None
2018-04-22 08:56 46 32 41 57 300° 9 - 30.35 30.35 10 CLR None
2018-04-22 07:56 45 33 40 62 300° 9 - 30.34 30.34 10 CLR 6-hr Min Temp (8am): 35.1°F
6-hr Max Temp (8am): 45.0°F
2018-04-22 06:56 43 34 39 70 280° 7 - 30.34 30.34 10 CLR None
2018-04-22 05:56 41 34 37 75 280° 6 - 30.32 30.32 10 CLR None
2018-04-22 04:56 41 35 36 79 290° 7 - 30.31 30.31 10 CLR None
2018-04-22 03:56 41 37 36 85 300° 7 - 30.31 30.31 10 CLR None
2018-04-22 02:56 35 33 - 92 - Calm - 30.31 30.31 10 CLR None
2018-04-22 01:56 42 36 39 78 350° 5 - 30.30 30.30 10 CLR 6-hr Min Temp (2am): 36.0°F
6-hr Max Temp (2am): 46.0°F
2018-04-22 00:56 42 36 38 78 350° 7 - 30.30 30.30 10 CLR 24-hr Min Temp (1am): 36.0°F
24-hr Max Temp (1am): 53.1°F
2018-04-21 23:56 38 36 34 92 280° 5 - 30.29 30.29 10 CLR None
2018-04-21 22:56 40 36 38 85 220° 3 - 30.29 30.29 10 CLR None
2018-04-21 21:56 43 36 39 76 200° 7 - 30.28 30.28 10 CLR None

Support USWX by starting your Amazon purchase here.